Terminal Aerodrome Forecast
Issued by NWS Sioux Falls, SD

Home | Current Version | Previous Version | Text Only | Print | Product List | Glossary Off
Versions: 1 2 3 4 5 6 7 8 9 10 11 12 13 14 15

413
FTUS43 KFSD 251125
TAFHON
TAF
KHON 251125Z 2512/2612 08005KT P6SM OVC008
     FM251600 12007KT P6SM OVC010
     FM251800 12007KT P6SM BKN015
     FM252000 10007KT P6SM SCT150
     FM260400 12006KT P6SM OVC015
     FM260900 09004KT P6SM BKN008=

USA.gov is the U.S. government's official web portal to all federal, state and local government web resources and services.